Time;durP1;ratioP1;P1;durP2;ratioP2;P2;SDS_P1;SDS_P2;PMS_P1;PMS_P2;Temp;Humidity;BMP_temperature;BMP_pressure;BME280_temperature;BME280_humidity;BME280_pressure;Samples;Min_cycle;Max_cycle;Signal;HPM_P1;HPM_P2
2022/07/30 00:01:22;;;;;;;17.13;5.60;;;;;;;24.57;100.00;101662.34;5076028;28;20033;-48
2022/07/30 00:03:48;;;;;;;10.70;5.30;;;;;;;24.76;100.00;101662.69;5083119;28;20024;-51
2022/07/30 00:06:13;;;;;;;10.10;5.60;;;;;;;24.11;100.00;101661.13;5084800;28;20032;-51
2022/07/30 00:08:39;;;;;;;16.90;5.40;;;;;;;24.26;100.00;101660.34;5078032;28;20045;-48
2022/07/30 00:11:04;;;;;;;14.77;5.68;;;;;;;24.15;100.00;101664.97;5075734;28;20056;-48
2022/07/30 00:13:30;;;;;;;10.27;6.00;;;;;;;24.27;100.00;101663.94;5073948;28;20096;-53
2022/07/30 00:15:55;;;;;;;14.67;5.57;;;;;;;24.11;100.00;101657.59;5077153;28;20040;-51
2022/07/30 00:18:21;;;;;;;9.50;5.95;;;;;;;24.27;100.00;101653.81;5074588;28;20037;-51
2022/07/30 00:20:46;;;;;;;10.05;6.10;;;;;;;24.44;100.00;101652.75;5077769;28;20104;-53
2022/07/30 00:23:11;;;;;;;18.03;6.20;;;;;;;23.79;100.00;101656.59;5074322;28;20029;-52
2022/07/30 00:25:37;;;;;;;;;;;;;;;23.79;100.00;101659.31;5072247;28;20029;-49
2022/07/30 00:28:03;;;;;;;14.07;6.43;;;;;;;23.93;100.00;101651.47;5074581;28;19928;-51
2022/07/30 00:30:28;;;;;;;14.25;6.00;;;;;;;24.43;100.00;101648.38;5077294;28;20518;-49
2022/07/30 00:32:54;;;;;;;14.63;6.05;;;;;;;22.85;100.00;101648.81;5072392;28;20037;-48
2022/07/30 00:35:20;;;;;;;13.48;5.93;;;;;;;22.66;100.00;101641.00;5072668;28;20044;-51
2022/07/30 00:37:45;;;;;;;15.60;7.15;;;;;;;22.67;100.00;101650.81;5070632;28;20098;-45
2022/07/30 00:40:10;;;;;;;16.45;6.43;;;;;;;22.70;100.00;101639.41;5076696;28;20041;-51
2022/07/30 00:42:44;;;;;;;19.38;6.57;;;;;;;22.42;100.00;101645.88;5071589;28;20042;-50
2022/07/30 00:45:12;;;;;;;13.90;6.37;;;;;;;22.49;100.00;101644.66;5072107;28;20112;-53
2022/07/30 00:47:39;;;;;;;12.43;5.93;;;;;;;22.49;100.00;101639.19;5072188;28;20305;-48
2022/07/30 00:50:08;;;;;;;15.27;6.20;;;;;;;22.42;100.00;101644.00;5069874;28;20338;-48
2022/07/30 00:52:37;;;;;;;20.90;8.23;;;;;;;22.43;100.00;101633.91;5080369;28;20297;-49
2022/07/30 00:55:04;;;;;;;15.03;6.50;;;;;;;22.41;100.00;101642.34;5077931;28;20341;-48
2022/07/30 00:57:29;;;;;;;13.60;5.70;;;;;;;22.37;100.00;101638.47;5070623;28;20290;-51
2022/07/30 00:59:55;;;;;;;16.77;6.40;;;;;;;23.67;100.00;101647.78;5077002;28;20358;-50
2022/07/30 01:02:20;;;;;;;21.10;6.28;;;;;;;22.73;100.00;101643.53;5070334;28;20286;-51
2022/07/30 01:04:46;;;;;;;14.88;6.80;;;;;;;22.41;100.00;101641.53;5071957;28;20037;-53
2022/07/30 01:07:12;;;;;;;11.85;6.75;;;;;;;21.95;100.00;101644.53;5071585;28;20094;-50
2022/07/30 01:09:38;;;;;;;;;;;;;;;22.27;100.00;101646.53;5073493;28;20034;-51
2022/07/30 01:12:06;;;;;;;14.97;6.60;;;;;;;22.18;100.00;101644.28;5071466;28;19915;-54
2022/07/30 01:14:33;;;;;;;18.30;7.23;;;;;;;21.92;100.00;101646.69;5073086;28;20072;-48
2022/07/30 01:16:59;;;;;;;10.87;5.80;;;;;;;21.86;100.00;101636.78;5077160;28;20273;-51
2022/07/30 01:19:51;;;;;;;11.02;5.97;;;;;;;22.07;100.00;101637.06;5076829;28;20293;-48
2022/07/30 01:22:29;;;;;;;15.03;5.83;;;;;;;22.65;100.00;101633.06;5072973;28;20104;-53
2022/07/30 01:25:19;;;;;;;13.93;5.87;;;;;;;23.01;100.00;101636.94;5076483;28;20365;-47
2022/07/30 01:27:49;;;;;;;13.27;5.73;;;;;;;23.01;100.00;101644.31;5071901;28;20270;-52
2022/07/30 01:30:28;;;;;;;13.80;5.27;;;;;;;22.89;100.00;101631.66;5073859;28;20379;-49
2022/07/30 01:32:56;;;;;;;21.07;6.77;;;;;;;22.93;100.00;101626.50;5067673;28;20292;-49
2022/07/30 01:35:24;;;;;;;17.40;6.60;;;;;;;23.14;100.00;101638.41;5068203;28;20284;-50
2022/07/30 01:37:51;;;;;;;18.13;6.10;;;;;;;22.70;100.00;101644.00;5071544;28;20354;-47
2022/07/30 01:40:19;;;;;;;13.53;5.50;;;;;;;23.20;100.00;101631.06;5070805;28;20283;-50
2022/07/30 01:42:48;;;;;;;16.73;6.53;;;;;;;22.96;100.00;101636.91;5073800;28;20258;-52
2022/07/30 01:45:15;;;;;;;14.03;6.30;;;;;;;23.24;100.00;101629.47;5078062;28;20296;-52
2022/07/30 01:47:42;;;;;;;18.43;6.37;;;;;;;23.17;100.00;101637.88;5073341;28;20277;-49
2022/07/30 01:50:14;;;;;;;15.37;5.67;;;;;;;22.81;100.00;101643.03;5076105;28;20285;-47
2022/07/30 01:52:43;;;;;;;16.47;6.20;;;;;;;23.41;100.00;101639.44;5073948;28;20372;-51
2022/07/30 01:55:13;;;;;;;13.17;7.13;;;;;;;22.89;100.00;101639.84;5083560;28;20278;-53
2022/07/30 01:57:39;;;;;;;23.67;7.73;;;;;;;23.24;100.00;101643.09;5070244;28;20305;-52
2022/07/30 02:00:06;;;;;;;14.73;7.32;;;;;;;23.28;100.00;101638.78;5068779;28;20282;-50
2022/07/30 02:02:41;;;;;;;11.93;7.07;;;;;;;22.90;100.00;101635.22;5070520;28;20044;-51
2022/07/30 02:05:08;;;;;;;13.02;6.90;;;;;;;22.31;100.00;101634.88;5069511;28;20274;-51
2022/07/30 02:07:33;;;;;;;22.37;7.53;;;;;;;23.03;100.00;101633.97;5070973;28;20045;-51
2022/07/30 02:10:22;;;;;;;14.60;6.43;;;;;;;22.30;100.00;101643.31;5073814;28;20273;-48
2022/07/30 02:12:50;;;;;;;15.43;6.83;;;;;;;21.73;100.00;101651.59;5071781;28;20350;-51
2022/07/30 02:15:24;;;;;;;18.47;6.93;;;;;;;21.48;100.00;101654.75;5072390;28;20375;-51
2022/07/30 02:18:00;;;;;;;23.30;7.93;;;;;;;20.73;100.00;101658.38;5077117;28;20270;-50
2022/07/30 02:20:28;;;;;;;21.13;7.50;;;;;;;21.46;100.00;101651.47;5067095;28;20278;-51
2022/07/30 02:23:01;;;;;;;20.53;7.80;;;;;;;21.57;100.00;101645.09;5069284;28;20273;-53
2022/07/30 02:25:32;;;;;;;16.57;7.10;;;;;;;21.65;100.00;101648.47;5066767;28;20301;-52
2022/07/30 02:28:03;;;;;;;15.07;8.00;;;;;;;21.01;100.00;101645.88;5071089;28;20340;-50
2022/07/30 02:30:33;;;;;;;28.00;8.90;;;;;;;20.52;100.00;101651.75;5069635;28;20290;-51
2022/07/30 02:33:03;;;;;;;15.57;8.13;;;;;;;20.92;100.00;101652.78;5071454;28;20299;-54
2022/07/30 02:35:31;;;;;;;17.57;8.07;;;;;;;21.15;100.00;101653.69;5068090;28;20312;-48
2022/07/30 02:38:00;;;;;;;20.47;9.00;;;;;;;21.17;100.00;101651.53;5070256;28;20282;-51
2022/07/30 02:40:28;;;;;;;21.73;9.07;;;;;;;21.29;100.00;101649.56;5070410;28;20308;-47
2022/07/30 02:42:55;;;;;;;21.95;10.30;;;;;;;21.22;100.00;101653.53;5081198;28;20266;-52
2022/07/30 02:45:25;;;;;;;26.80;10.07;;;;;;;21.28;100.00;101653.38;5072720;28;20045;-47
2022/07/30 02:47:56;;;;;;;15.93;9.90;;;;;;;21.20;100.00;101656.47;5065414;28;20297;-50
2022/07/30 02:50:23;;;;;;;19.10;9.70;;;;;;;21.11;100.00;101653.38;5077007;28;20308;-53
2022/07/30 02:52:53;;;;;;;23.27;10.43;;;;;;;20.65;100.00;101647.91;5066541;28;20282;-52
2022/07/30 02:55:18;;;;;;;20.50;10.27;;;;;;;20.95;100.00;101646.84;5068011;28;20273;-53
2022/07/30 02:57:47;;;;;;;18.92;10.10;;;;;;;21.11;100.00;101647.09;5070224;28;20324;-53
2022/07/30 03:00:14;;;;;;;22.23;10.63;;;;;;;21.12;100.00;101651.47;5070880;28;20049;-49
2022/07/30 03:02:40;;;;;;;24.48;9.98;;;;;;;21.75;100.00;101648.63;5070397;28;20280;-49
2022/07/30 03:05:08;;;;;;;19.53;10.53;;;;;;;21.59;100.00;101653.81;5070671;28;20043;-49
2022/07/30 03:07:36;;;;;;;18.33;10.38;;;;;;;21.85;100.00;101646.03;5075962;28;20273;-48
2022/07/30 03:10:04;;;;;;;22.50;12.00;;;;;;;22.44;100.00;101652.75;5070534;28;20024;-47
2022/07/30 03:12:31;;;;;;;19.50;10.90;;;;;;;21.27;100.00;101651.72;5068219;28;20353;-52
2022/07/30 03:14:57;;;;;;;26.70;11.57;;;;;;;21.91;100.00;101655.94;5066167;28;20266;-50
2022/07/30 03:17:27;;;;;;;28.65;12.07;;;;;;;22.24;100.00;101656.03;5069587;28;20267;-47
2022/07/30 03:19:54;;;;;;;20.40;11.53;;;;;;;21.94;100.00;101661.97;5069026;28;20101;-49
2022/07/30 03:22:23;;;;;;;28.40;11.37;;;;;;;21.22;100.00;101659.81;5069859;28;20262;-48
2022/07/30 03:24:51;;;;;;;22.50;11.27;;;;;;;20.22;100.00;101660.13;5071276;28;20266;-47
2022/07/30 03:27:18;;;;;;;23.17;12.37;;;;;;;20.35;100.00;101657.16;5074695;28;20265;-46
2022/07/30 03:29:47;;;;;;;23.00;11.85;;;;;;;20.18;100.00;101660.63;5069650;28;20305;-54
2022/07/30 03:32:13;;;;;;;31.50;14.10;;;;;;;20.77;100.00;101662.28;5055103;28;20093;-52
2022/07/30 03:34:39;;;;;;;24.88;12.38;;;;;;;19.80;100.00;101661.13;5071980;28;20285;-47
2022/07/30 03:37:05;;;;;;;21.83;12.53;;;;;;;20.40;100.00;101659.97;5071298;28;20044;-51
2022/07/30 03:39:34;;;;;;;27.37;14.97;;;;;;;20.81;100.00;101654.47;5068250;28;20274;-47
2022/07/30 03:42:02;;;;;;;25.33;13.13;;;;;;;20.83;100.00;101659.69;5066589;28;20274;-47
2022/07/30 03:44:29;;;;;;;;;;;;;;;20.70;100.00;101658.06;5067077;28;20306;-51
2022/07/30 03:46:57;;;;;;;27.23;13.93;;;;;;;20.61;100.00;101654.91;5062854;28;19920;-50
2022/07/30 03:49:23;;;;;;;25.10;14.20;;;;;;;20.78;100.00;101663.09;5071510;28;20033;-49
2022/07/30 03:51:51;;;;;;;29.43;14.40;;;;;;;20.10;100.00;101657.44;5068586;28;20282;-48
2022/07/30 03:54:16;;;;;;;26.27;14.07;;;;;;;20.40;100.00;101656.41;5069886;28;20278;-49
2022/07/30 03:57:20;;;;;;;30.37;14.73;;;;;;;20.25;100.00;101667.78;5073335;28;20288;-47
2022/07/30 03:59:50;;;;;;;29.07;14.50;;;;;;;20.28;100.00;101678.16;5074957;28;20282;-48
2022/07/30 04:02:16;;;;;;;27.03;13.97;;;;;;;20.32;100.00;101671.22;5074718;28;20278;-48
2022/07/30 04:04:55;;;;;;;30.10;14.63;;;;;;;20.12;100.00;101672.44;5072939;28;20289;-51
2022/07/30 04:07:21;;;;;;;25.55;13.30;;;;;;;20.06;100.00;101670.66;5072059;28;20277;-49
2022/07/30 04:09:47;;;;;;;22.95;13.45;;;;;;;19.99;100.00;101676.25;5072797;28;20034;-48
2022/07/30 04:12:26;;;;;;;25.80;15.73;;;;;;;20.34;100.00;101679.94;5064113;28;20057;-48
2022/07/30 04:14:52;;;;;;;24.83;15.87;;;;;;;20.85;100.00;101684.72;5068177;28;20262;-49
2022/07/30 04:17:24;;;;;;;30.43;17.00;;;;;;;20.94;100.00;101685.97;5065309;28;20033;-50
2022/07/30 04:19:55;;;;;;;28.30;16.10;;;;;;;21.14;100.00;101684.69;5067056;28;20279;-49
2022/07/30 04:22:26;;;;;;;27.33;16.63;;;;;;;20.91;100.00;101689.19;5068617;28;20293;-50
2022/07/30 04:24:53;;;;;;;28.27;17.40;;;;;;;21.46;100.00;101689.56;5069199;28;20301;-49
2022/07/30 04:27:19;;;;;;;38.60;18.53;;;;;;;21.19;100.00;101699.19;5069379;28;20289;-50
2022/07/30 04:29:45;;;;;;;33.08;17.13;;;;;;;21.17;100.00;101687.75;5072616;28;20270;-49
2022/07/30 04:32:11;;;;;;;28.67;16.35;;;;;;;21.02;100.00;101690.19;5074371;28;20092;-47
2022/07/30 04:35:02;;;;;;;34.60;17.40;;;;;;;21.09;100.00;101693.56;5067186;28;20083;-50
2022/07/30 04:37:55;;;;;;;27.07;16.60;;;;;;;20.31;100.00;101685.88;5072394;28;20276;-51
2022/07/30 04:40:21;;;;;;;29.13;16.73;;;;;;;20.24;100.00;101690.59;5071216;28;20290;-49
2022/07/30 04:42:46;;;;;;;27.55;16.75;;;;;;;21.17;100.00;101689.63;5072776;28;20045;-49
2022/07/30 04:45:12;;;;;;;26.10;15.88;;;;;;;21.35;100.00;101694.81;5071393;28;20060;-52
2022/07/30 04:48:08;;;;;;;30.90;18.43;;;;;;;21.38;100.00;101700.84;5078178;28;20040;-49
2022/07/30 04:50:58;;;;;;;24.25;16.13;;;;;;;21.35;100.00;101704.91;5076417;28;20266;-47
2022/07/30 04:53:27;;;;;;;25.67;16.20;;;;;;;20.76;100.00;101706.00;5075451;28;20040;-49
2022/07/30 04:55:58;;;;;;;31.00;15.30;;;;;;;21.54;100.00;101713.63;5070363;28;20278;-48
2022/07/30 04:58:27;;;;;;;28.50;14.47;;;;;;;21.54;100.00;101708.19;5070119;28;20273;-46
2022/07/30 05:00:56;;;;;;;29.80;17.47;;;;;;;21.23;100.00;101710.41;5075078;28;20281;-51
2022/07/30 05:03:27;;;;;;;23.70;13.33;;;;;;;21.60;100.00;101709.91;5074371;28;20285;-52
2022/07/30 05:05:55;;;;;;;27.73;14.73;;;;;;;21.52;100.00;101710.31;5078688;28;20253;-48
2022/07/30 05:08:23;;;;;;;36.43;16.77;;;;;;;21.63;100.00;101706.69;5074252;28;20294;-46
2022/07/30 05:10:49;;;;;;;29.43;19.07;;;;;;;21.73;100.00;101710.66;5074524;28;20329;-50
2022/07/30 05:13:15;;;;;;;28.55;17.60;;;;;;;21.61;100.00;101717.00;5073021;28;20282;-47
2022/07/30 05:15:43;;;;;;;28.00;16.63;;;;;;;21.31;100.00;101725.47;5072416;28;20036;-47
2022/07/30 05:18:10;;;;;;;29.93;16.67;;;;;;;21.52;100.00;101725.81;5072898;28;20052;-49
2022/07/30 05:20:40;;;;;;;31.60;16.60;;;;;;;21.31;100.00;101718.16;5070128;28;20406;-50
2022/07/30 05:23:15;;;;;;;27.63;15.33;;;;;;;21.41;100.00;101720.22;5070221;28;20269;-48
2022/07/30 05:25:45;;;;;;;24.77;14.27;;;;;;;21.48;100.00;101714.63;5067179;28;20274;-49
2022/07/30 05:28:15;;;;;;;26.90;14.33;;;;;;;21.24;100.00;101722.94;5069998;28;20262;-50
2022/07/30 05:30:42;;;;;;;31.43;15.40;;;;;;;21.47;100.00;101715.69;5071737;28;20270;-49
2022/07/30 05:33:11;;;;;;;26.60;14.50;;;;;;;21.56;100.00;101732.41;5072737;28;20277;-48
2022/07/30 05:35:36;;;;;;;23.85;12.05;;;;;;;21.55;100.00;101734.31;5071890;28;20284;-51
2022/07/30 05:38:02;;;;;;;23.67;12.85;;;;;;;21.40;100.00;101731.34;5070499;28;20136;-52
2022/07/30 05:40:38;;;;;;;26.27;12.93;;;;;;;21.61;100.00;101732.50;5073052;28;20065;-50
2022/07/30 05:43:21;;;;;;;18.57;11.20;;;;;;;21.71;100.00;101729.16;5072545;28;20285;-49
2022/07/30 05:45:48;;;;;;;21.17;11.50;;;;;;;21.44;100.00;101721.59;5075117;28;20296;-52
2022/07/30 05:48:13;;;;;;;21.60;11.40;;;;;;;21.51;100.00;101727.72;5072335;28;20033;-51
2022/07/30 05:50:38;;;;;;;22.27;11.70;;;;;;;21.84;100.00;101733.44;5075834;28;20052;-50
2022/07/30 05:53:04;;;;;;;25.40;11.77;;;;;;;21.89;100.00;101738.94;5069823;28;20041;-52
2022/07/30 05:55:55;;;;;;;21.43;12.20;;;;;;;21.37;100.00;101738.13;5047804;28;20052;-53
2022/07/30 05:58:40;;;;;;;18.13;10.87;;;;;;;21.65;100.00;101747.28;5072917;28;20256;-51
2022/07/30 06:01:05;;;;;;;24.63;10.82;;;;;;;22.20;100.00;101750.25;5070872;28;20385;-53
2022/07/30 06:03:32;;;;;;;17.77;11.18;;;;;;;21.98;100.00;101752.94;5072330;28;20053;-51
2022/07/30 06:06:21;;;;;;;29.30;12.63;;;;;;;22.09;100.00;101749.28;5073524;28;20056;-52
2022/07/30 06:08:48;;;;;;;25.27;12.02;;;;;;;22.26;100.00;101752.00;5073428;28;20369;-53
2022/07/30 06:11:13;;;;;;;22.57;11.70;;;;;;;22.16;100.00;101752.66;5071880;28;20040;-53
2022/07/30 06:13:39;;;;;;;22.45;9.73;;;;;;;22.27;100.00;101756.38;5069280;28;20278;-54
2022/07/30 06:16:05;;;;;;;26.05;14.15;;;;;;;22.56;100.00;101752.63;5066518;28;20033;-51
2022/07/30 06:18:31;;;;;;;14.40;8.57;;;;;;;22.19;100.00;101752.16;5069507;28;20064;-52
2022/07/30 06:20:56;;;;;;;18.30;10.50;;;;;;;22.56;100.00;101749.91;5088042;28;20100;-51
2022/07/30 06:23:30;;;;;;;28.47;11.17;;;;;;;22.35;100.00;101764.09;5072569;28;20032;-52
2022/07/30 06:26:14;;;;;;;17.50;10.60;;;;;;;22.70;100.00;101753.91;5071175;28;20280;-54
2022/07/30 06:28:40;;;;;;;27.35;10.57;;;;;;;22.79;100.00;101762.44;5071286;28;20266;-50
2022/07/30 06:31:28;;;;;;;21.60;10.70;;;;;;;22.20;100.00;101767.44;5074783;28;20110;-49
2022/07/30 06:33:54;;;;;;;30.80;11.43;;;;;;;22.26;100.00;101775.66;5073617;28;20269;-49
2022/07/30 06:36:20;;;;;;;21.57;9.57;;;;;;;22.75;100.00;101773.03;5069988;28;20037;-52
2022/07/30 06:38:53;;;;;;;14.70;8.97;;;;;;;22.39;100.00;101771.75;5072383;28;20024;-51
2022/07/30 06:41:30;;;;;;;19.45;9.75;;;;;;;22.72;100.00;101768.09;5072270;28;20265;-52
2022/07/30 06:43:57;;;;;;;16.80;8.60;;;;;;;22.72;100.00;101768.09;5070545;28;20052;-51
2022/07/30 06:46:41;;;;;;;24.03;10.03;;;;;;;22.73;100.00;101772.47;5072359;28;20297;-53
2022/07/30 06:49:08;;;;;;;16.67;8.00;;;;;;;22.95;100.00;101773.50;5069598;28;20271;-53
2022/07/30 06:51:34;;;;;;;17.77;8.77;;;;;;;22.89;100.00;101768.00;5071045;28;20306;-52
2022/07/30 06:54:00;;;;;;;19.70;9.20;;;;;;;23.23;100.00;101771.63;5070109;28;20108;-50
2022/07/30 06:56:26;;;;;;;9.90;4.85;;;;;;;23.31;100.00;101774.75;5071783;28;20044;-51
2022/07/30 06:58:56;;;;;;;8.30;4.80;;;;;;;23.55;100.00;101770.81;5068951;28;20079;-48
2022/07/30 07:01:40;;;;;;;20.87;9.03;;;;;;;23.59;100.00;101774.69;5075586;28;20036;-51
2022/07/30 07:04:06;;;;;;;18.70;7.75;;;;;;;23.73;100.00;101770.44;5069158;28;20025;-48
2022/07/30 07:06:34;;;;;;;14.20;7.53;;;;;;;23.65;100.00;101772.81;5069185;28;20096;-49
2022/07/30 07:09:00;;;;;;;16.42;6.15;;;;;;;24.02;100.00;101766.56;5068718;28;20043;-49
2022/07/30 07:11:37;;;;;;;;;;;;;;;23.89;100.00;101778.75;5071296;28;20040;-48
2022/07/30 07:14:07;;;;;;;11.20;5.67;;;;;;;24.18;100.00;101772.91;5066610;28;20322;-50
2022/07/30 07:16:33;;;;;;;22.43;9.60;;;;;;;24.47;100.00;101772.50;5069526;28;20028;-53
2022/07/30 07:19:13;;;;;;;11.37;5.50;;;;;;;24.59;100.00;101791.41;5070890;28;20040;-52
2022/07/30 07:21:38;;;;;;;8.82;4.72;;;;;;;24.52;100.00;101782.66;5071350;28;20101;-51
2022/07/30 07:24:05;;;;;;;15.07;5.95;;;;;;;24.66;100.00;101786.50;5072911;28;20044;-49
2022/07/30 07:26:49;;;;;;;11.33;4.23;;;;;;;24.97;100.00;101786.66;5074390;28;20095;-52
2022/07/30 07:29:15;;;;;;;10.38;3.67;;;;;;;25.14;100.00;101791.03;5072534;28;20029;-50
2022/07/30 07:31:41;;;;;;;9.27;3.30;;;;;;;25.48;100.00;101791.38;5068756;28;20104;-54
2022/07/30 07:34:07;;;;;;;11.98;4.30;;;;;;;25.23;100.00;101785.84;5069571;28;20452;-51
2022/07/30 07:36:35;;;;;;;;;;;;;;;25.02;100.00;101783.91;5075308;28;20348;-51
2022/07/30 07:39:01;;;;;;;8.73;3.00;;;;;;;24.57;100.00;101796.31;5086388;28;19916;-50
2022/07/30 07:41:26;;;;;;;12.55;4.00;;;;;;;24.17;100.00;101796.69;5072603;28;20060;-53
2022/07/30 07:43:51;;;;;;;11.10;4.75;;;;;;;25.09;100.00;101800.06;5072440;28;20052;-49
2022/07/30 07:46:29;;;;;;;5.43;3.03;;;;;;;25.40;100.00;101802.84;5069662;28;20071;-49
2022/07/30 07:48:55;;;;;;;5.07;3.03;;;;;;;25.33;100.00;101803.09;5068633;28;20033;-50
2022/07/30 07:51:34;;;;;;;6.30;2.20;;;;;;;25.35;100.00;101800.91;5073196;28;20059;-49
2022/07/30 07:54:01;;;;;;;5.67;2.80;;;;;;;25.13;100.00;101798.44;5069073;28;20040;-47
2022/07/30 07:56:27;;;;;;;12.50;4.90;;;;;;;25.88;100.00;101801.75;5067970;28;20055;-52
2022/07/30 07:58:54;;;;;;;7.47;3.27;;;;;;;25.23;100.00;101791.31;5065324;28;20033;-47
2022/07/30 08:01:20;;;;;;;9.53;2.70;;;;;;;26.05;100.00;101804.19;5070764;28;20029;-51
2022/07/30 08:04:12;;;;;;;9.43;3.40;;;;;;;26.01;100.00;101803.09;5069081;28;20078;-50
2022/07/30 08:06:59;;;;;;;12.20;3.75;;;;;;;25.69;100.00;101801.50;5068269;28;20108;-51
2022/07/30 08:09:43;;;;;;;16.50;6.43;;;;;;;24.52;100.00;101793.59;5071160;28;20090;-50
2022/07/30 08:12:18;;;;;;;7.93;3.90;;;;;;;24.20;100.00;101790.69;5078710;28;20025;-50
2022/07/30 08:15:20;;;;;;;16.93;6.13;;;;;;;24.47;100.00;101795.22;5092727;28;20102;-47
2022/07/30 08:17:46;;;;;;;8.10;3.83;;;;;;;24.33;100.00;101789.38;5077357;28;20100;-54
2022/07/30 08:20:17;;;;;;;7.47;2.77;;;;;;;24.91;100.00;101783.06;5074684;28;20029;-54
2022/07/30 08:22:43;;;;;;;9.20;3.28;;;;;;;24.90;100.00;101786.06;5059819;28;20048;-52
2022/07/30 08:25:09;;;;;;;10.38;3.25;;;;;;;24.88;100.00;101782.78;5069887;28;20029;-51
2022/07/30 08:27:35;;;;;;;14.07;6.17;;;;;;;24.72;100.00;101785.47;5069074;28;20067;-47
2022/07/30 08:30:07;;;;;;;11.23;5.78;;;;;;;24.46;100.00;101785.38;5071705;28;20030;-53
2022/07/30 08:32:33;;;;;;;8.43;3.67;;;;;;;24.62;100.00;101791.72;5072706;28;20036;-50
2022/07/30 08:34:59;;;;;;;10.07;3.33;;;;;;;24.54;100.00;101786.72;5073644;28;20028;-53
2022/07/30 08:37:25;;;;;;;9.50;3.97;;;;;;;24.94;100.00;101789.09;5074995;28;20096;-50
2022/07/30 08:39:52;;;;;;;10.87;3.60;;;;;;;25.27;100.00;101801.47;5071640;28;20040;-52
2022/07/30 08:42:18;;;;;;;9.15;5.03;;;;;;;25.09;100.00;101799.25;5074646;28;20036;-52
2022/07/30 08:44:45;;;;;;;;;;;;;;;26.18;100.00;101805.56;5071852;28;20049;-53
2022/07/30 08:47:16;;;;;;;13.67;7.93;;;;;;;26.65;100.00;101794.44;5073671;28;19939;-51
2022/07/30 08:50:05;;;;;;;23.63;10.07;;;;;;;25.88;100.00;101786.16;5072897;28;20029;-51
2022/07/30 08:52:37;;;;;;;7.87;3.30;;;;;;;25.97;100.00;101802.00;5065575;28;20037;-51
2022/07/30 08:55:06;;;;;;;11.77;4.67;;;;;;;25.52;100.00;101796.31;5065635;28;20104;-49
2022/07/30 08:57:35;;;;;;;9.80;3.00;;;;;;;25.78;100.00;101797.09;5069206;28;20060;-51
2022/07/30 09:00:04;;;;;;;7.30;3.43;;;;;;;26.00;100.00;101801.47;5073328;28;20029;-51
2022/07/30 09:02:31;;;;;;;9.33;3.93;;;;;;;26.20;100.00;101806.13;5074620;28;20063;-49
2022/07/30 09:05:00;;;;;;;8.57;3.30;;;;;;;26.06;100.00;101808.56;5087590;28;20029;-52
2022/07/30 09:07:26;;;;;;;7.63;3.00;;;;;;;26.56;100.00;101796.94;5066366;28;20071;-52
2022/07/30 09:09:52;;;;;;;7.13;3.95;;;;;;;26.83;100.00;101798.44;5077013;28;20036;-51
2022/07/30 09:12:42;;;;;;;10.00;3.03;;;;;;;26.91;100.00;101804.19;5072797;28;20025;-52
2022/07/30 09:15:19;;;;;;;11.67;5.27;;;;;;;27.03;100.00;101803.84;5055285;28;20338;-51
2022/07/30 09:17:47;;;;;;;8.80;4.22;;;;;;;27.24;100.00;101806.47;5064977;28;20068;-53
2022/07/30 09:20:13;;;;;;;12.73;3.83;;;;;;;26.56;100.00;101811.47;5066348;28;20060;-50
2022/07/30 09:22:41;;;;;;;9.17;3.87;;;;;;;26.62;100.00;101815.81;5066906;28;20033;-50
2022/07/30 09:25:44;;;;;;;10.17;4.23;;;;;;;25.69;100.00;101806.97;5065808;28;20068;-50
2022/07/30 09:28:33;;;;;;;7.90;2.60;;;;;;;25.83;100.00;101813.53;5067950;28;20208;-52
2022/07/30 09:31:19;;;;;;;7.43;2.77;;;;;;;26.11;100.00;101822.28;5067093;28;20040;-54
2022/07/30 09:34:00;;;;;;;7.00;2.47;;;;;;;26.42;100.00;101824.16;5067583;28;20041;-51
2022/07/30 09:36:44;;;;;;;10.40;3.23;;;;;;;27.59;100.00;101826.53;5066485;28;20079;-52
2022/07/30 09:39:39;;;;;;;10.63;3.10;;;;;;;26.67;100.00;101820.47;5068756;28;20098;-52
2022/07/30 09:42:20;;;;;;;7.77;3.20;;;;;;;27.97;100.00;101823.16;5069848;28;20033;-54
2022/07/30 09:44:47;;;;;;;16.43;10.20;;;;;;;29.22;97.40;101827.97;5070773;28;20068;-51
2022/07/30 09:47:34;;;;;;;3.50;1.60;;;;;;;29.14;91.96;101828.66;5072280;28;20063;-54
2022/07/30 09:50:06;;;;;;;6.60;1.95;;;;;;;28.92;90.47;101824.56;5079527;28;20105;-50
2022/07/30 09:52:32;;;;;;;4.32;1.60;;;;;;;29.02;91.44;101820.84;5069765;28;20037;-52
2022/07/30 09:54:58;;;;;;;4.60;2.20;;;;;;;30.65;82.99;101829.59;5068814;28;20047;-48
2022/07/30 09:57:27;;;;;;;4.40;2.05;;;;;;;31.82;73.34;101851.19;5065500;28;20052;-52
2022/07/30 09:59:56;;;;;;;7.18;2.28;;;;;;;31.60;67.76;101833.47;5067495;28;20032;-48
2022/07/30 10:02:32;;;;;;;4.65;1.70;;;;;;;33.18;58.08;101835.94;5065631;28;20096;-50
2022/07/30 10:05:32;;;;;;;3.78;1.50;;;;;;;34.01;56.65;101835.97;5027285;28;20045;-50
2022/07/30 10:08:01;;;;;;;3.55;1.48;;;;;;;35.09;50.32;101827.50;5074371;28;20049;-51
2022/07/30 10:10:29;;;;;;;4.85;1.60;;;;;;;35.89;47.19;101837.47;5068779;28;20078;-49
2022/07/30 10:13:01;;;;;;;10.02;2.05;;;;;;;34.83;50.98;101826.53;5072055;28;20100;-52
2022/07/30 10:15:30;;;;;;;3.60;1.63;;;;;;;35.59;49.35;101829.31;5071429;28;20090;-53
2022/07/30 10:17:57;;;;;;;9.73;1.70;;;;;;;35.12;49.74;101824.03;5073724;28;20033;-52
2022/07/30 10:20:48;;;;;;;5.47;1.67;;;;;;;35.43;47.21;101819.97;5071354;28;20400;-49
2022/07/30 10:23:46;;;;;;;5.28;1.17;;;;;;;35.14;48.17;101828.09;5068504;28;20052;-51
2022/07/30 10:26:33;;;;;;;6.65;1.33;;;;;;;36.33;43.82;101818.56;5070763;28;20056;-48
2022/07/30 10:29:37;;;;;;;5.25;1.50;;;;;;;37.20;42.49;101815.56;5067846;28;20139;-49
2022/07/30 10:32:04;;;;;;;4.35;1.38;;;;;;;35.55;44.73;101825.59;5065097;28;20036;-49
2022/07/30 10:34:31;;;;;;;3.50;1.20;;;;;;;35.36;46.01;101819.72;5065728;28;20033;-54
2022/07/30 10:37:01;;;;;;;2.70;1.20;;;;;;;36.08;42.89;101827.75;5069904;28;20049;-53
2022/07/30 10:39:36;;;;;;;2.75;1.17;;;;;;;35.92;45.93;101824.00;5069421;28;20043;-51
2022/07/30 10:42:20;;;;;;;3.05;1.13;;;;;;;37.75;40.92;101827.00;5070849;28;20093;-52
2022/07/30 10:45:06;;;;;;;5.38;1.35;;;;;;;37.65;40.61;101830.34;5070230;28;20045;-53
2022/07/30 10:47:32;;;;;;;5.43;1.70;;;;;;;37.83;41.18;101820.44;5069773;28;20033;-53
2022/07/30 10:50:12;;;;;;;5.35;1.40;;;;;;;37.08;41.63;101819.22;5071148;28;20045;-54
2022/07/30 10:53:02;;;;;;;5.55;1.50;;;;;;;36.83;42.53;101830.44;5069519;28;20044;-52
2022/07/30 10:55:30;;;;;;;3.15;1.10;;;;;;;37.04;42.41;101835.03;5067847;28;20065;-50
2022/07/30 10:58:11;;;;;;;6.03;1.23;;;;;;;36.14;45.83;101829.13;5070504;28;20048;-53
2022/07/30 11:00:42;;;;;;;5.50;1.40;;;;;;;38.16;41.30;101832.38;5068022;28;20116;-53
2022/07/30 11:03:24;;;;;;;4.22;1.40;;;;;;;39.43;37.42;101833.09;5068237;28;20041;-54
2022/07/30 11:05:51;;;;;;;5.38;1.10;;;;;;;36.82;40.62;101834.41;5067565;28;20033;-53
2022/07/30 11:08:38;;;;;;;2.70;1.02;;;;;;;36.33;40.62;101821.34;5068974;28;20059;-52
2022/07/30 11:11:27;;;;;;;3.50;1.27;;;;;;;36.99;41.22;101822.13;5066878;28;20055;-57
2022/07/30 11:13:56;;;;;;;4.38;1.45;;;;;;;37.19;40.68;101827.88;5065105;28;20044;-51
2022/07/30 11:16:24;;;;;;;2.10;1.20;;;;;;;36.19;43.79;101828.09;5068939;28;20024;-53
2022/07/30 11:19:03;;;;;;;3.00;1.40;;;;;;;36.58;41.17;101825.78;5065935;28;20021;-55
2022/07/30 11:21:29;;;;;;;4.15;1.50;;;;;;;37.91;38.87;101834.56;5069622;28;20084;-56
2022/07/30 11:23:54;;;;;;;6.53;1.52;;;;;;;38.56;37.74;101836.13;5067508;28;20025;-54
2022/07/30 11:26:38;;;;;;;5.38;1.67;;;;;;;39.96;35.87;101842.00;5068910;28;20036;-54
2022/07/30 11:29:35;;;;;;;6.35;1.90;;;;;;;38.59;36.71;101840.97;5066318;28;20063;-53
2022/07/30 11:32:34;;;;;;;9.07;5.00;;;;;;;38.87;36.11;101824.00;5068592;28;20096;-53